Date,TemperatureHighF,TemperatureAvgF,TemperatureLowF,DewpointHighF,DewpointAvgF,DewpointLowF,HumidityHigh,HumidityAvg,HumidityLow,PressureMaxIn,PressureMinIn,WindSpeedMaxMPH,WindSpeedAvgMPH,GustSpeedMaxMPH,PrecipitationSumIn
2013-2-1,76.0,68.6,62.0,69.0,64.2,59.0,94,86,75,30.12,30.04,5,1,0,0.00
2013-2-2,77.0,69.4,64.0,65.0,61.8,59.0,87,78,64,30.16,30.06,3,1,0,0.00
2013-2-3,73.0,66.7,60.0,65.0,62.0,57.0,93,85,73,30.18,30.08,3,1,0,0.00
2013-2-4,71.0,66.5,62.0,64.0,60.9,57.0,92,82,76,30.11,30.05,5,1,0,0.00
2013-2-5,72.0,66.8,61.0,65.0,60.8,55.0,89,81,72,30.09,30.02,3,1,0,0.00
2013-2-6,76.0,67.9,60.0,66.0,60.5,55.0,89,78,65,30.10,30.01,4,1,0,0.00
2013-2-7,77.0,68.6,61.0,67.0,62.2,57.0,90,80,68,30.14,30.03,5,1,0,0.00
2013-2-8,75.0,67.7,60.0,68.0,62.0,55.0,90,82,71,30.16,30.05,5,1,0,0.00
2013-2-9,75.0,68.2,60.0,65.0,61.9,56.0,92,81,68,30.14,30.05,4,2,0,0.00
2013-2-10,75.0,68.1,62.0,68.0,62.9,57.0,92,84,75,30.19,30.09,4,1,0,0.00
2013-2-11,74.0,68.0,61.0,67.0,62.3,56.0,91,82,75,30.22,30.11,5,2,0,0.00
2013-2-12,73.0,66.4,60.0,66.0,61.0,54.0,89,83,75,30.19,30.09,3,1,0,0.00
2013-2-13,72.0,66.2,60.0,61.0,58.5,54.0,84,77,66,30.14,30.03,4,1,0,0.00
2013-2-14,71.0,65.1,58.0,63.0,58.8,53.0,88,80,71,30.11,30.01,3,1,0,0.00
2013-2-15,75.0,67.4,59.0,64.0,58.8,52.0,90,75,46,30.11,30.01,7,2,0,0.00
2013-2-16,77.0,67.9,62.0,68.0,61.2,56.0,89,79,70,30.11,30.02,3,1,0,0.00
2013-2-17,78.0,67.7,60.0,66.0,61.2,56.0,92,80,63,30.12,30.03,1,0,0,0.00
2013-2-18,76.0,68.0,63.0,67.0,62.0,57.0,89,81,64,30.11,30.01,2,0,0,0.00
2013-2-19,64.0,61.8,60.0,60.0,57.9,56.0,90,87,85,30.12,30.06,0,0,0,0.00
2013-2-20,80.0,72.0,63.0,68.0,64.8,59.0,91,79,65,30.13,30.03,2,0,0,0.00
2013-2-21,77.0,67.5,60.0,68.0,62.2,56.0,90,83,72,30.14,30.05,1,0,0,0.00
2013-2-22,74.0,68.0,63.0,69.0,63.4,57.0,94,86,74,30.13,30.02,0,0,0,0.00
2013-2-23,75.0,66.6,62.0,67.0,62.4,59.0,95,87,70,30.13,30.03,5,1,0,0.00
2013-2-24,73.0,66.6,60.0,67.0,61.8,56.0,92,85,73,30.11,30.01,3,1,0,0.00
2013-2-25,75.0,66.8,60.0,66.0,62.0,58.0,93,85,72,30.15,30.04,5,2,0,0.00
2013-2-26,73.0,66.7,59.0,65.0,60.9,55.0,89,82,74,30.15,30.07,3,1,0,0.00
2013-2-27,74.0,67.4,62.0,66.0,61.5,57.0,90,81,72,30.18,30.09,4,1,0,0.00
2013-2-28,72.0,65.5,58.0,64.0,59.6,54.0,90,81,71,30.19,30.10,3,1,0,0.00